Ana Sayfa
METAR-TAF:

METAR-TAF

Havaalanları :

Quakertown Airport

Quakertown, Pensilvanya, Amerika Birleşik Devletleri

Enlem: 40-26-06N, Boylam: 075-22-54W, yükseklik: 160 m

Güncel hava durumu gözlemi

Rapor saat 04:00 UTC de 19 dakika önce yapıldı.
Rüzgar güney/güneybatıdan 9 kt
Sıcaklık 10°C
Nem 100%
Basınç 1008 hPa
Görüş mesafesi: 16.1 km
800 ft yükseklikte çok bulutlu

METAR: KUKT 100400Z AUTO 20009KT 10SM OVC008 10/10 A2976 RMK A01

Saat: 23:19 (04:19 UTC)


TAF: eksik

4.000'den fazla havaalanı için hava durumu gözlemleri ve tahminleri (METAR ve TAF raporları).

Kullanılabilir istasyonlar harita üzerinde sarı ve kırmızı noktalarla gösterilir.

İstasyonun adını görmek için fareyi noktanın üzerinde gezdirin.

Sonrasında hava gözlem ve tahminlerini görmek için tıklayın.

Haritayı değiştirmek için: yaklaştırmak için siyah artı işaretli yeşil düğmeye ve uzaklaştırmak için de eksi işaretli düğmeye hızla tıklayın; bitişik haritalar için yeşil okları kullanın.


METAR-TAF: